Time;durP1;ratioP1;P1;durP2;ratioP2;P2;SDS_P1;SDS_P2;PMS_P1;PMS_P2;Temp;Humidity;BMP_temperature;BMP_pressure;BME280_temperature;BME280_humidity;BME280_pressure;Samples;Min_cycle;Max_cycle;Signal;HPM_P1;HPM_P2
2022/05/21 00:01:08;;;;;;;0.20;0.20;;;11.90;99.90;;;;;;5034597;28;20454;-78
2022/05/21 00:03:33;;;;;;;0.20;0.20;;;11.90;99.90;;;;;;5026471;28;20323;-78
2022/05/21 00:05:59;;;;;;;0.10;0.10;;;11.90;99.90;;;;;;5038109;28;20536;-78
2022/05/21 00:08:25;;;;;;;0.10;0.10;;;11.90;99.90;;;;;;5048660;28;20232;-78
2022/05/21 00:10:50;;;;;;;0.20;0.20;;;11.70;99.90;;;;;;5029858;28;20203;-79
2022/05/21 00:13:16;;;;;;;0.10;0.10;;;11.90;99.90;;;;;;5019742;28;20196;-78
2022/05/21 00:15:41;;;;;;;0.10;0.10;;;11.80;99.90;;;;;;5026255;28;20228;-78
2022/05/21 00:18:07;;;;;;;0.20;0.20;;;11.60;99.90;;;;;;5033715;28;20199;-79
2022/05/21 00:20:48;;;;;;;0.10;0.10;;;11.60;99.90;;;;;;5026807;28;20583;-78
2022/05/21 00:23:22;;;;;;;0.20;0.20;;;11.70;99.90;;;;;;5035123;28;20244;-78
2022/05/21 00:25:50;;;;;;;0.20;0.20;;;11.70;99.90;;;;;;5032910;28;20453;-78
2022/05/21 00:28:16;;;;;;;0.20;0.20;;;11.70;99.90;;;;;;5032470;28;20449;-78
2022/05/21 00:30:42;;;;;;;0.17;0.17;;;11.30;99.90;;;;;;5032907;28;20438;-78
2022/05/21 00:33:08;;;;;;;0.30;0.30;;;11.30;99.90;;;;;;5035485;28;20454;-79
2022/05/21 00:35:34;;;;;;;0.20;0.20;;;11.20;99.90;;;;;;5025744;28;20878;-79
2022/05/21 00:38:00;;;;;;;0.20;0.20;;;11.00;99.90;;;;;;5046678;28;20457;-79
2022/05/21 00:40:27;;;;;;;0.30;0.30;;;10.90;99.90;;;;;;5028232;28;20509;-79
2022/05/21 00:42:54;;;;;;;0.20;0.20;;;11.10;99.90;;;;;;5028509;28;20452;-79
2022/05/21 00:45:19;;;;;;;0.20;0.20;;;11.00;99.90;;;;;;5026826;28;20551;-79
2022/05/21 00:47:45;;;;;;;0.30;0.30;;;11.00;99.90;;;;;;5029575;28;20438;-78
2022/05/21 00:50:13;;;;;;;0.30;0.30;;;11.10;99.90;;;;;;5025819;28;20199;-79
2022/05/21 00:52:40;;;;;;;0.30;0.30;;;11.10;99.90;;;;;;5034646;28;20190;-79
2022/05/21 00:55:17;;;;;;;0.30;0.30;;;11.20;99.90;;;;;;5032859;28;21001;-79
2022/05/21 00:57:45;;;;;;;0.30;0.30;;;11.00;99.90;;;;;;5025335;28;20649;-80
2022/05/21 01:00:17;;;;;;;0.37;0.37;;;11.00;99.90;;;;;;5024337;28;20537;-79
2022/05/21 01:02:51;;;;;;;0.20;0.20;;;11.00;99.90;;;;;;5036319;28;20473;-79
2022/05/21 01:05:20;;;;;;;0.13;0.13;;;11.00;99.90;;;;;;5042993;28;20541;-79
2022/05/21 01:07:46;;;;;;;0.10;0.10;;;11.00;99.90;;;;;;5026953;28;20454;-79
2022/05/21 01:10:16;;;;;;;0.20;0.20;;;11.00;99.90;;;;;;5033894;28;20445;-79
2022/05/21 01:12:47;;;;;;;0.10;0.10;;;11.10;99.90;;;;;;5029975;28;20972;-79
2022/05/21 01:15:18;;;;;;;0.20;0.20;;;10.90;99.90;;;;;;5035754;28;20814;-80
2022/05/21 01:17:45;;;;;;;0.20;0.20;;;10.90;99.90;;;;;;5028568;28;20990;-80
2022/05/21 01:20:18;;;;;;;0.50;0.50;;;11.00;99.90;;;;;;5027787;28;20929;-79
2022/05/21 01:22:46;;;;;;;0.40;0.40;;;11.00;99.90;;;;;;5010387;28;20876;-79
2022/05/21 01:25:15;;;;;;;0.30;0.30;;;10.80;99.90;;;;;;5023509;28;20492;-79
2022/05/21 01:27:42;;;;;;;0.10;0.10;;;10.80;99.90;;;;;;5033253;28;20470;-80
2022/05/21 01:30:10;;;;;;;0.20;0.20;;;10.80;99.90;;;;;;5024877;28;20505;-79
2022/05/21 01:32:36;;;;;;;0.20;0.20;;;10.80;99.90;;;;;;5024028;28;20807;-80
2022/05/21 01:35:01;;;;;;;0.10;0.10;;;10.60;99.90;;;;;;5031119;28;20453;-80
2022/05/21 01:37:29;;;;;;;0.33;0.33;;;10.60;99.90;;;;;;5020137;28;20270;-80
2022/05/21 01:39:54;;;;;;;0.20;0.20;;;10.70;99.90;;;;;;5032497;28;20345;-80
2022/05/21 01:42:20;;;;;;;0.20;0.20;;;10.70;99.90;;;;;;5025032;28;20561;-79
2022/05/21 01:44:52;;;;;;;0.30;0.30;;;10.70;99.90;;;;;;5026276;28;21849;-79
2022/05/21 01:47:18;;;;;;;0.23;0.23;;;10.80;99.90;;;;;;5034074;28;20191;-81
2022/05/21 01:49:43;;;;;;;0.20;0.20;;;10.90;99.90;;;;;;5026362;28;20569;-80
2022/05/21 01:52:10;;;;;;;0.10;0.10;;;10.90;99.90;;;;;;5032646;28;20533;-80
2022/05/21 01:54:36;;;;;;;0.10;0.10;;;10.80;99.90;;;;;;5025419;28;21042;-80
2022/05/21 01:57:03;;;;;;;0.20;0.20;;;10.90;99.90;;;;;;5027242;28;20440;-80
2022/05/21 01:59:29;;;;;;;0.10;0.10;;;11.10;99.90;;;;;;5041972;28;20452;-80
2022/05/21 02:01:55;;;;;;;0.20;0.20;;;10.90;99.90;;;;;;5028327;28;20450;-79
2022/05/21 02:04:21;;;;;;;0.30;0.30;;;10.90;99.90;;;;;;5028506;28;20545;-80
2022/05/21 02:06:47;;;;;;;0.20;0.20;;;10.90;99.90;;;;;;5033364;28;20524;-80
2022/05/21 02:09:13;;;;;;;0.20;0.20;;;11.00;99.90;;;;;;5033236;28;20438;-80
2022/05/21 02:11:39;;;;;;;0.27;0.27;;;11.00;99.90;;;;;;5031496;28;20453;-80
2022/05/21 02:14:06;;;;;;;0.30;0.30;;;11.00;99.90;;;;;;5030168;28;20184;-80
2022/05/21 02:16:34;;;;;;;0.30;0.30;;;11.00;99.90;;;;;;5037040;28;20455;-80
2022/05/21 02:19:01;;;;;;;0.20;0.20;;;11.00;99.90;;;;;;5028881;28;20504;-79
2022/05/21 02:21:27;;;;;;;0.20;0.20;;;11.10;99.90;;;;;;5036201;28;21011;-80
2022/05/21 02:23:53;;;;;;;0.20;0.20;;;11.00;99.90;;;;;;5031928;28;20508;-80
2022/05/21 02:26:18;;;;;;;0.67;0.67;;;11.00;99.90;;;;;;5030821;28;20981;-80
2022/05/21 02:28:44;;;;;;;0.20;0.20;;;11.00;99.90;;;;;;5035015;28;20235;-80
2022/05/21 02:31:09;;;;;;;0.10;0.10;;;11.00;99.90;;;;;;5029487;28;20188;-80
2022/05/21 02:33:35;;;;;;;0.20;0.20;;;11.00;99.90;;;;;;5029436;28;20555;-80
2022/05/21 02:36:00;;;;;;;0.30;0.30;;;11.10;99.90;;;;;;5042066;28;20618;-78
2022/05/21 02:41:12;;;;;;;0.20;0.20;;;11.10;99.90;;;;;;5030160;28;20238;-80
2022/05/21 02:43:38;;;;;;;0.10;0.10;;;11.20;99.90;;;;;;5044383;28;21225;-81
2022/05/21 02:46:04;;;;;;;0.10;0.10;;;11.10;99.90;;;;;;5049644;28;20521;-80
2022/05/21 02:48:30;;;;;;;0.20;0.20;;;11.10;99.90;;;;;;5031688;28;20535;-80
2022/05/21 02:50:56;;;;;;;0.20;0.20;;;11.00;99.90;;;;;;5029028;28;20861;-81
2022/05/21 02:53:22;;;;;;;0.10;0.10;;;11.10;99.90;;;;;;5028472;28;20442;-81
2022/05/21 02:55:51;;;;;;;0.20;0.20;;;11.10;99.90;;;;;;5029327;28;20183;-81
2022/05/21 02:58:17;;;;;;;0.10;0.10;;;11.00;99.90;;;;;;5029512;28;20446;-81
2022/05/21 03:00:44;;;;;;;0.40;0.40;;;11.00;99.90;;;;;;5033627;28;20571;-81
2022/05/21 03:03:09;;;;;;;0.20;0.20;;;11.20;99.90;;;;;;5037292;28;20454;-80
2022/05/21 03:05:35;;;;;;;0.20;0.20;;;11.10;99.90;;;;;;5026293;28;20477;-80
2022/05/21 03:10:20;;;;;;;0.20;0.20;;;11.10;99.90;;;;;;5040174;28;20195;-80
2022/05/21 03:10:47;;;;;;;0.20;0.20;;;11.10;99.90;;;;;;5045014;28;20202;-80
2022/05/21 03:13:12;;;;;;;0.10;0.10;;;11.10;99.90;;;;;;5030649;28;20450;-80
2022/05/21 03:15:39;;;;;;;0.20;0.20;;;11.10;99.90;;;;;;5038154;28;20257;-81
2022/05/21 03:18:07;;;;;;;0.43;0.43;;;11.10;99.90;;;;;;5023070;28;20199;-80
2022/05/21 03:20:33;;;;;;;0.20;0.20;;;11.10;99.90;;;;;;5030978;28;20952;-80
2022/05/21 03:22:59;;;;;;;0.10;0.10;;;11.10;99.90;;;;;;5035509;28;20458;-79
2022/05/21 03:25:24;;;;;;;0.20;0.20;;;11.10;99.90;;;;;;5042088;28;20489;-79
2022/05/21 03:27:51;;;;;;;0.47;0.47;;;11.10;99.90;;;;;;5029767;28;20191;-80
2022/05/21 03:30:20;;;;;;;0.20;0.20;;;11.10;99.90;;;;;;5027327;28;20198;-80
2022/05/21 03:32:46;;;;;;;0.43;0.43;;;11.10;99.90;;;;;;5028325;28;20454;-80
2022/05/21 03:35:12;;;;;;;0.20;0.20;;;11.10;99.90;;;;;;5032669;28;20825;-79
2022/05/21 03:37:39;;;;;;;0.10;0.10;;;11.20;99.90;;;;;;5041144;28;20196;-80
2022/05/21 03:40:07;;;;;;;0.20;0.20;;;11.20;99.90;;;;;;5033621;28;20478;-81
2022/05/21 03:42:33;;;;;;;0.20;0.20;;;11.20;99.90;;;;;;5030962;28;20418;-81
2022/05/21 03:44:58;;;;;;;0.20;0.20;;;11.20;99.90;;;;;;5027494;28;20486;-80
2022/05/21 03:47:24;;;;;;;0.10;0.10;;;11.00;99.90;;;;;;5033271;28;20282;-81
2022/05/21 03:49:49;;;;;;;0.20;0.20;;;11.10;99.90;;;;;;5024350;28;20214;-80
2022/05/21 03:52:15;;;;;;;0.20;0.20;;;11.10;99.90;;;;;;5034665;28;20713;-80
2022/05/21 03:54:41;;;;;;;0.20;0.20;;;11.20;99.90;;;;;;5034993;28;20192;-81
2022/05/21 03:57:10;;;;;;;0.10;0.10;;;11.20;99.90;;;;;;5025766;28;20192;-81
2022/05/21 03:59:36;;;;;;;0.10;0.10;;;11.30;99.90;;;;;;5039242;28;20274;-81
2022/05/21 04:02:01;;;;;;;0.10;0.10;;;11.20;99.90;;;;;;5025786;28;20464;-80
2022/05/21 04:04:27;;;;;;;0.10;0.10;;;11.30;99.90;;;;;;5025022;28;20225;-82
2022/05/21 04:06:52;;;;;;;0.10;0.10;;;11.20;99.90;;;;;;5008307;28;20202;-81
2022/05/21 04:09:18;;;;;;;0.30;0.30;;;11.30;99.90;;;;;;5023621;28;20609;-80
2022/05/21 04:11:44;;;;;;;0.10;0.10;;;11.30;99.90;;;;;;5020809;28;20635;-81
2022/05/21 04:14:11;;;;;;;0.13;0.13;;;11.20;99.90;;;;;;5033350;28;20534;-80
2022/05/21 04:16:36;;;;;;;0.20;0.20;;;11.30;99.90;;;;;;5039840;28;20713;-81
2022/05/21 04:19:02;;;;;;;0.17;0.17;;;11.30;99.90;;;;;;5027025;28;20450;-78
2022/05/21 04:21:29;;;;;;;0.20;0.20;;;11.40;99.90;;;;;;5014709;28;20206;-81
2022/05/21 04:23:55;;;;;;;0.10;0.10;;;11.40;99.90;;;;;;5013472;28;20469;-80
2022/05/21 04:26:21;;;;;;;0.20;0.20;;;11.40;99.90;;;;;;5033561;28;20222;-81
2022/05/21 04:28:46;;;;;;;0.10;0.10;;;11.40;99.90;;;;;;5027255;28;20477;-80
2022/05/21 04:31:12;;;;;;;0.20;0.20;;;11.40;99.90;;;;;;5032835;28;20506;-79
2022/05/21 04:33:37;;;;;;;0.20;0.20;;;11.40;99.90;;;;;;5034497;28;20192;-80
2022/05/21 04:36:18;;;;;;;0.20;0.20;;;11.40;99.90;;;;;;5040499;28;20191;-79
2022/05/21 04:38:49;;;;;;;0.20;0.20;;;11.40;99.90;;;;;;5041699;28;20187;-82
2022/05/21 04:41:15;;;;;;;0.20;0.20;;;11.30;99.90;;;;;;5018924;28;20544;-81
2022/05/21 04:43:40;;;;;;;0.20;0.20;;;11.30;99.90;;;;;;5023502;28;20446;-81
2022/05/21 04:46:06;;;;;;;0.10;0.10;;;11.30;99.90;;;;;;5006862;28;21075;-81
2022/05/21 04:48:32;;;;;;;0.20;0.20;;;11.30;99.90;;;;;;5022485;28;20180;-81
2022/05/21 04:50:59;;;;;;;0.20;0.20;;;11.30;99.90;;;;;;5023367;28;20270;-82
2022/05/21 04:53:25;;;;;;;0.10;0.10;;;11.30;99.90;;;;;;5024745;28;20604;-80
2022/05/21 04:55:50;;;;;;;0.20;0.20;;;11.40;99.90;;;;;;5033251;28;20482;-80
2022/05/21 04:58:16;;;;;;;0.10;0.10;;;11.30;99.90;;;;;;5023897;28;20187;-82
2022/05/21 05:00:41;;;;;;;0.10;0.10;;;11.40;99.90;;;;;;5032251;28;20179;-83
2022/05/21 05:03:11;;;;;;;0.13;0.13;;;11.40;99.90;;;;;;5013498;28;20205;-83
2022/05/21 05:05:39;;;;;;;0.20;0.20;;;11.50;99.90;;;;;;5026820;28;20258;-84
2022/05/21 05:08:05;;;;;;;0.20;0.20;;;11.50;99.90;;;;;;5029857;28;20464;-83
2022/05/21 05:10:31;;;;;;;0.10;0.10;;;11.60;99.90;;;;;;5020424;28;20600;-83
2022/05/21 05:12:57;;;;;;;0.10;0.10;;;11.50;99.90;;;;;;5027273;28;20764;-83
2022/05/21 05:15:22;;;;;;;0.20;0.20;;;11.50;99.90;;;;;;5035000;28;20444;-81
2022/05/21 05:17:48;;;;;;;0.20;0.20;;;11.50;99.90;;;;;;5026002;28;20742;-82
2022/05/21 05:20:13;;;;;;;0.10;0.10;;;11.50;99.90;;;;;;5027939;28;20226;-82
2022/05/21 05:22:39;;;;;;;0.10;0.10;;;11.50;99.90;;;;;;5029295;28;20675;-82
2022/05/21 05:25:05;;;;;;;0.10;0.10;;;11.40;99.90;;;;;;5026178;28;20965;-83
2022/05/21 05:27:31;;;;;;;0.10;0.10;;;11.40;99.90;;;;;;5043053;28;20214;-82
2022/05/21 05:29:56;;;;;;;0.20;0.20;;;11.30;99.90;;;;;;5031290;28;20538;-78
2022/05/21 05:32:22;;;;;;;0.10;0.10;;;11.30;99.90;;;;;;5013410;28;20199;-80
2022/05/21 05:34:47;;;;;;;0.20;0.20;;;11.30;99.90;;;;;;5025059;28;20194;-81
2022/05/21 05:37:13;;;;;;;0.10;0.10;;;11.30;99.90;;;;;;5027344;28;20179;-80
2022/05/21 05:39:38;;;;;;;0.10;0.10;;;11.20;99.90;;;;;;5030369;28;20234;-82
2022/05/21 05:42:05;;;;;;;0.20;0.20;;;11.20;99.90;;;;;;5025489;28;20220;-81
2022/05/21 05:44:31;;;;;;;0.20;0.20;;;11.20;99.90;;;;;;5015666;28;20242;-82
2022/05/21 05:46:57;;;;;;;0.10;0.10;;;11.30;99.90;;;;;;5038892;28;20512;-82
2022/05/21 05:49:23;;;;;;;0.20;0.20;;;11.30;99.90;;;;;;5029617;28;20857;-81
2022/05/21 05:51:48;;;;;;;0.20;0.20;;;11.30;99.90;;;;;;5036606;28;20445;-79
2022/05/21 05:54:14;;;;;;;0.20;0.20;;;11.30;99.90;;;;;;5026794;28;20191;-83
2022/05/21 05:56:44;;;;;;;0.20;0.20;;;11.20;99.90;;;;;;5030145;28;20203;-82
2022/05/21 06:02:57;;;;;;;0.10;0.10;;;11.20;99.90;;;;;;5044697;28;20540;-82
2022/05/21 06:04:41;;;;;;;0.10;0.10;;;11.30;99.90;;;;;;5030621;28;20482;-82
2022/05/21 06:07:10;;;;;;;0.20;0.20;;;11.30;99.90;;;;;;5021829;28;20536;-82
2022/05/21 06:09:36;;;;;;;0.10;0.10;;;11.30;99.90;;;;;;5030539;28;20985;-82
2022/05/21 06:12:01;;;;;;;0.10;0.10;;;11.30;99.90;;;;;;5030350;28;20430;-83
2022/05/21 06:14:28;;;;;;;0.20;0.20;;;11.50;99.90;;;;;;5032551;28;20255;-82
2022/05/21 06:16:53;;;;;;;0.20;0.20;;;11.50;99.90;;;;;;5037233;28;20727;-83
2022/05/21 06:19:19;;;;;;;0.10;0.10;;;11.50;99.90;;;;;;5031057;28;20563;-83
2022/05/21 06:21:45;;;;;;;0.10;0.10;;;11.60;99.90;;;;;;5032705;28;20180;-82
2022/05/21 06:24:10;;;;;;;0.10;0.10;;;11.60;99.90;;;;;;5027163;28;20211;-83
2022/05/21 06:26:36;;;;;;;0.10;0.10;;;11.70;99.90;;;;;;5031262;28;20203;-84
2022/05/21 06:29:01;;;;;;;0.20;0.20;;;11.70;99.90;;;;;;5030216;28;20183;-83
2022/05/21 06:31:27;;;;;;;0.10;0.10;;;11.80;99.90;;;;;;5027967;28;20248;-84
2022/05/21 06:33:52;;;;;;;0.10;0.10;;;11.90;99.90;;;;;;5028120;28;20206;-84
2022/05/21 06:36:19;;;;;;;0.10;0.10;;;12.00;99.90;;;;;;5012843;28;20184;-89
2022/05/21 06:38:45;;;;;;;0.10;0.10;;;12.20;99.90;;;;;;5038858;28;20704;-87
2022/05/21 06:41:10;;;;;;;0.10;0.10;;;12.30;99.90;;;;;;5037156;28;20480;-88
2022/05/21 06:43:36;;;;;;;0.10;0.10;;;12.30;99.90;;;;;;5016287;28;20339;-89
2022/05/21 06:46:02;;;;;;;0.10;0.10;;;12.40;99.90;;;;;;5013002;28;20207;-89
2022/05/21 06:48:28;;;;;;;0.10;0.10;;;12.40;99.90;;;;;;5028230;28;20865;-86
2022/05/21 06:50:53;;;;;;;0.10;0.10;;;12.40;99.90;;;;;;5030163;28;20226;-87
2022/05/21 06:53:19;;;;;;;0.10;0.10;;;12.50;99.90;;;;;;5030556;28;20226;-86
2022/05/21 06:55:45;;;;;;;0.10;0.10;;;12.50;99.90;;;;;;5044072;28;20195;-84
2022/05/21 06:58:11;;;;;;;0.10;0.10;;;12.50;99.90;;;;;;5031437;28;20309;-84
2022/05/21 07:00:36;;;;;;;0.10;0.10;;;12.50;99.90;;;;;;5029839;28;20194;-82
2022/05/21 07:03:02;;;;;;;0.10;0.10;;;12.60;99.90;;;;;;5021007;28;20871;-84
2022/05/21 07:08:24;;;;;;;0.10;0.10;;;12.70;99.90;;;;;;5030980;28;20255;-83
2022/05/21 07:10:51;;;;;;;0.10;0.10;;;12.80;99.90;;;;;;5011512;28;20477;-83
2022/05/21 07:13:18;;;;;;;0.20;0.20;;;12.80;99.90;;;;;;5032864;28;20441;-84
2022/05/21 07:15:44;;;;;;;0.10;0.10;;;12.80;99.90;;;;;;5039129;28;20448;-80
2022/05/21 07:18:12;;;;;;;0.10;0.10;;;12.90;99.90;;;;;;5025590;28;20544;-81
2022/05/21 07:20:38;;;;;;;0.10;0.10;;;12.80;99.90;;;;;;5030762;28;20524;-82
2022/05/21 07:23:03;;;;;;;0.17;0.17;;;12.80;99.90;;;;;;5032521;28;20503;-79
2022/05/21 07:25:31;;;;;;;0.17;0.17;;;12.80;99.90;;;;;;5032397;28;20259;-90
2022/05/21 07:28:00;;;;;;;0.10;0.10;;;12.90;99.90;;;;;;5029522;28;20277;-90
2022/05/21 07:30:27;;;;;;;0.10;0.10;;;12.90;99.90;;;;;;5029018;28;20457;-91
2022/05/21 07:32:55;;;;;;;0.10;0.10;;;13.00;99.90;;;;;;5034368;28;20485;-92
2022/05/21 07:35:22;;;;;;;0.10;0.10;;;13.00;99.90;;;;;;5013519;28;20447;-93
2022/05/21 07:37:48;;;;;;;0.10;0.10;;;13.00;99.90;;;;;;5033378;28;20448;-93
2022/05/21 07:40:16;;;;;;;0.17;0.17;;;13.10;99.90;;;;;;5040772;28;20540;-94
2022/05/21 07:42:41;;;;;;;0.10;0.10;;;13.20;99.90;;;;;;5023707;28;20433;-91
2022/05/21 07:45:09;;;;;;;0.10;0.10;;;13.30;99.90;;;;;;5034574;28;20480;-94
2022/05/21 07:47:35;;;;;;;0.10;0.10;;;13.20;99.90;;;;;;5034490;28;20195;-93
2022/05/21 07:50:01;;;;;;;0.10;0.10;;;13.20;99.90;;;;;;5037801;28;20455;-90
2022/05/21 07:52:28;;;;;;;0.10;0.10;;;13.30;99.90;;;;;;5030472;28;20222;-91
2022/05/21 07:54:54;;;;;;;0.10;0.10;;;13.20;99.90;;;;;;5013213;28;20446;-90
2022/05/21 07:57:20;;;;;;;0.20;0.20;;;13.20;99.90;;;;;;5032340;28;20434;-91
2022/05/21 07:59:46;;;;;;;0.10;0.10;;;13.40;99.90;;;;;;5021941;28;20190;-90
2022/05/21 08:02:17;;;;;;;0.10;0.10;;;13.60;99.90;;;;;;5052515;28;21245;-91
2022/05/21 08:04:44;;;;;;;0.10;0.10;;;13.70;99.90;;;;;;5013376;28;20214;-88
2022/05/21 08:07:10;;;;;;;0.10;0.10;;;13.80;99.90;;;;;;5031333;28;20441;-91
2022/05/21 08:09:36;;;;;;;0.10;0.10;;;13.80;99.90;;;;;;5029878;28;20525;-92
2022/05/21 08:12:03;;;;;;;0.10;0.10;;;13.70;99.90;;;;;;5021339;28;20447;-91
2022/05/21 08:14:29;;;;;;;0.10;0.10;;;13.80;99.90;;;;;;5026290;28;20191;-93
2022/05/21 08:16:55;;;;;;;0.17;0.17;;;13.90;99.90;;;;;;5022339;28;20445;-89
2022/05/21 08:19:20;;;;;;;0.10;0.10;;;14.10;99.90;;;;;;5036751;28;20190;-88
2022/05/21 08:21:46;;;;;;;0.10;0.10;;;14.20;99.90;;;;;;5046187;28;20456;-87
2022/05/21 08:26:56;;;;;;;0.10;0.10;;;14.60;99.90;;;;;;5050240;28;20269;-85
2022/05/21 08:29:27;;;;;;;0.10;0.10;;;14.60;99.90;;;;;;5016780;28;20460;-88
2022/05/21 08:31:54;;;;;;;0.20;0.20;;;14.70;99.90;;;;;;5044084;28;20186;-85
2022/05/21 08:34:24;;;;;;;0.10;0.10;;;14.60;99.90;;;;;;5031099;28;20528;-87
2022/05/21 08:36:50;;;;;;;0.10;0.10;;;14.50;99.90;;;;;;5010820;28;20435;-85
2022/05/21 08:39:17;;;;;;;0.20;0.20;;;14.40;99.90;;;;;;5020384;28;20566;-86
2022/05/21 08:41:53;;;;;;;0.10;0.10;;;14.80;99.90;;;;;;5011631;28;20516;-86
2022/05/21 08:44:24;;;;;;;0.10;0.10;;;14.80;99.90;;;;;;5004533;28;20469;-85
2022/05/21 08:46:56;;;;;;;0.10;0.10;;;14.60;99.90;;;;;;5027895;28;20949;-87
2022/05/21 08:49:41;;;;;;;0.10;0.10;;;14.90;99.90;;;;;;5022687;28;20437;-87
2022/05/21 08:52:19;;;;;;;0.10;0.10;;;15.40;99.90;;;;;;5017029;28;20462;-87
2022/05/21 08:54:48;;;;;;;0.10;0.10;;;15.70;99.90;;;;;;5032232;28;20956;-90
2022/05/21 08:57:41;;;;;;;0.10;0.10;;;16.00;99.90;;;;;;5013453;28;20469;-84
2022/05/21 09:00:14;;;;;;;0.10;0.10;;;15.90;99.90;;;;;;5026145;28;20438;-91
2022/05/21 09:02:40;;;;;;;0.10;0.10;;;15.80;99.90;;;;;;5020120;28;20451;-90
2022/05/21 09:05:15;;;;;;;0.10;0.10;;;15.90;99.90;;;;;;5019879;28;20569;-89
2022/05/21 09:08:05;;;;;;;0.10;0.10;;;16.20;99.90;;;;;;5019246;28;20465;-89
2022/05/21 09:10:49;;;;;;;0.10;0.10;;;15.80;99.90;;;;;;5037815;28;20450;-88
2022/05/21 09:13:22;;;;;;;0.10;0.10;;;16.60;99.90;;;;;;5022681;28;20438;-88
2022/05/21 09:18:35;;;;;;;0.00;0.00;;;16.90;99.90;;;;;;5031008;28;20532;-93
2022/05/21 09:21:08;;;;;;;0.00;0.00;;;16.90;99.90;;;;;;5036328;28;20956;-93
2022/05/21 09:23:54;;;;;;;0.00;0.00;;;16.60;99.90;;;;;;5032754;28;20441;-89
2022/05/21 09:26:43;;;;;;;0.00;0.00;;;16.10;99.90;;;;;;5028397;28;20841;-91
2022/05/21 09:29:20;;;;;;;0.10;0.10;;;15.90;99.90;;;;;;5038375;28;20457;-93
2022/05/21 09:31:46;;;;;;;0.00;0.00;;;15.80;99.90;;;;;;5024273;28;20476;-92
2022/05/21 09:34:43;;;;;;;0.10;0.10;;;15.80;99.90;;;;;;5011087;28;20467;-90
2022/05/21 09:37:16;;;;;;;0.10;0.10;;;15.80;99.90;;;;;;5000608;28;20434;-88
2022/05/21 09:39:43;;;;;;;0.10;0.10;;;15.50;99.90;;;;;;5023278;28;20462;-87
2022/05/21 09:45:23;;;;;;;0.10;0.10;;;15.70;99.90;;;;;;5037624;28;20562;-86
2022/05/21 09:48:09;;;;;;;0.10;0.10;;;15.50;99.90;;;;;;4998636;28;20451;-84
2022/05/21 09:50:59;;;;;;;0.10;0.10;;;15.20;99.90;;;;;;5003932;28;20471;-92
2022/05/21 09:53:37;;;;;;;0.10;0.10;;;15.10;99.90;;;;;;5026338;28;20450;-85
2022/05/21 09:56:21;;;;;;;0.10;0.10;;;15.10;99.90;;;;;;5031320;28;20442;-86
2022/05/21 09:58:50;;;;;;;0.10;0.10;;;15.90;99.90;;;;;;5032064;28;20446;-89
2022/05/21 10:01:37;;;;;;;0.10;0.10;;;16.50;99.90;;;;;;5032041;28;20447;-90
2022/05/21 10:04:33;;;;;;;0.10;0.10;;;17.20;99.90;;;;;;5011887;28;20565;-88
2022/05/21 10:13:08;;;;;;;0.20;0.20;;;16.50;99.90;;;;;;5026851;28;20960;-86
2022/05/21 10:15:43;;;;;;;0.10;0.10;;;16.10;99.90;;;;;;5021629;28;20914;-88
2022/05/21 10:18:25;;;;;;;0.10;0.10;;;15.80;99.90;;;;;;5029539;28;20477;-92
2022/05/21 10:20:56;;;;;;;0.10;0.10;;;15.40;99.90;;;;;;5029401;28;20980;-95
2022/05/21 10:23:39;;;;;;;0.10;0.10;;;14.90;99.90;;;;;;5022864;28;20520;-93
2022/05/21 10:26:23;;;;;;;0.20;0.20;;;15.20;99.90;;;;;;5033659;28;20488;-91
2022/05/21 10:29:33;;;;;;;0.10;0.10;;;15.70;99.90;;;;;;5034751;28;20442;-87
2022/05/21 10:32:19;;;;;;;0.20;0.20;;;15.80;99.90;;;;;;5018840;28;20488;-87
2022/05/21 10:35:03;;;;;;;0.10;0.10;;;15.50;99.90;;;;;;5033547;28;20450;-90
2022/05/21 10:37:52;;;;;;;0.10;0.10;;;15.60;99.90;;;;;;5035528;28;20556;-85
2022/05/21 10:40:50;;;;;;;0.20;0.20;;;15.30;99.90;;;;;;5044061;28;20635;-83
2022/05/21 10:43:42;;;;;;;0.13;0.13;;;15.30;99.90;;;;;;5037470;28;20967;-92
2022/05/21 10:46:30;;;;;;;0.10;0.10;;;15.60;99.90;;;;;;5034191;28;20465;-90
2022/05/21 10:49:04;;;;;;;0.10;0.10;;;15.30;99.90;;;;;;5022221;28;20476;-91
2022/05/21 10:51:34;;;;;;;0.10;0.10;;;15.20;99.90;;;;;;5015902;28;20516;-89
2022/05/21 10:54:05;;;;;;;0.20;0.20;;;14.90;99.90;;;;;;5031754;28;20480;-87
2022/05/21 10:56:49;;;;;;;0.10;0.10;;;14.80;99.90;;;;;;5032675;28;20452;-86
2022/05/21 10:59:55;;;;;;;0.10;0.10;;;14.80;99.90;;;;;;5033962;28;20446;-86
2022/05/21 11:03:17;;;;;;;0.10;0.10;;;14.70;99.90;;;;;;5020501;28;20441;-87
2022/05/21 11:06:05;;;;;;;0.10;0.10;;;14.90;99.90;;;;;;4954779;29;20482;-89
2022/05/21 11:08:31;;;;;;;0.10;0.10;;;14.70;99.90;;;;;;5035396;28;20462;-92
2022/05/21 11:11:09;;;;;;;0.10;0.10;;;14.80;99.90;;;;;;5032372;28;20474;-92
2022/05/21 11:13:38;;;;;;;0.10;0.10;;;14.90;99.90;;;;;;5035820;28;20221;-93
2022/05/21 11:16:31;;;;;;;0.10;0.10;;;14.90;99.90;;;;;;5036997;28;20954;-92
2022/05/21 11:19:15;;;;;;;0.10;0.10;;;15.00;99.90;;;;;;5018203;28;20446;-96
2022/05/21 11:21:56;;;;;;;0.10;0.10;;;15.40;99.90;;;;;;5006599;28;20504;-85
2022/05/21 11:24:53;;;;;;;0.10;0.10;;;15.50;99.90;;;;;;5030975;28;20457;-89
2022/05/21 11:27:34;;;;;;;0.10;0.10;;;15.50;99.90;;;;;;4995893;28;20453;-93
2022/05/21 11:30:09;;;;;;;0.20;0.20;;;15.60;99.90;;;;;;5037176;28;20496;-94
2022/05/21 11:38:34;;;;;;;0.17;0.17;;;15.80;99.90;;;;;;5038003;28;20448;-96
2022/05/21 11:41:24;;;;;;;0.10;0.10;;;16.60;99.90;;;;;;5035400;28;20466;-86
2022/05/21 11:47:20;;;;;;;0.10;0.10;;;17.10;99.90;;;;;;5051700;28;20846;-94
2022/05/21 11:49:50;;;;;;;0.10;0.10;;;17.20;99.90;;;;;;5048562;28;20543;-88
2022/05/21 11:52:28;;;;;;;0.10;0.10;;;17.20;99.90;;;;;;5041799;28;20516;-92
2022/05/21 11:54:53;;;;;;;0.10;0.10;;;17.30;99.90;;;;;;5031761;28;20445;-93
2022/05/21 11:57:51;;;;;;;0.10;0.00;;;16.80;99.90;;;;;;5031104;28;20541;-89
2022/05/21 12:00:42;;;;;;;0.10;0.00;;;17.40;99.90;;;;;;5029072;28;20200;-93
2022/05/21 12:03:10;;;;;;;0.10;0.10;;;17.70;99.90;;;;;;5025386;28;20449;-94
2022/05/21 12:05:37;;;;;;;0.10;0.00;;;18.70;99.90;;;;;;5016650;28;20481;-88
2022/05/21 12:08:22;;;;;;;0.10;0.00;;;19.30;99.90;;;;;;5030851;28;20431;-95
2022/05/21 12:11:04;;;;;;;0.10;0.10;;;18.80;99.90;;;;;;5031638;28;20434;-85
2022/05/21 12:13:35;;;;;;;0.10;0.00;;;18.50;99.90;;;;;;5027523;28;20442;-95
2022/05/21 12:16:08;;;;;;;0.10;0.07;;;19.30;99.90;;;;;;5030022;28;20516;-95
2022/05/21 12:18:48;;;;;;;0.00;0.00;;;19.40;99.90;;;;;;5031648;28;20442;-93
2022/05/21 12:21:36;;;;;;;0.10;0.10;;;18.60;99.90;;;;;;5034018;28;20525;-96
2022/05/21 12:24:32;;;;;;;0.00;0.00;;;19.00;99.90;;;;;;5023686;23;21054;-89
2022/05/21 12:27:21;;;;;;;0.00;0.00;;;19.80;99.90;;;;;;5004087;28;20524;-93
2022/05/21 12:29:47;;;;;;;0.00;0.00;;;19.90;99.90;;;;;;5010464;28;20542;-88
2022/05/21 12:32:26;;;;;;;0.00;0.00;;;19.90;99.90;;;;;;5008773;28;20953;-93
2022/05/21 12:35:23;;;;;;;0.00;0.00;;;18.30;99.90;;;;;;4993332;28;20436;-86
2022/05/21 12:37:56;;;;;;;0.00;0.00;;;17.10;99.90;;;;;;5017476;28;20454;-91
2022/05/21 12:40:29;;;;;;;0.10;0.10;;;16.30;99.90;;;;;;5007314;28;20447;-94
2022/05/21 12:43:15;;;;;;;0.10;0.10;;;16.10;99.90;;;;;;5009733;28;20443;-94
2022/05/21 12:45:49;;;;;;;0.10;0.00;;;17.20;99.90;;;;;;4993258;28;20482;-88
2022/05/21 12:48:18;;;;;;;0.10;0.10;;;17.80;99.90;;;;;;5022796;28;20427;-86
2022/05/21 12:50:56;;;;;;;0.00;0.00;;;18.60;99.90;;;;;;4999219;28;20435;-91
2022/05/21 12:53:44;;;;;;;0.00;0.00;;;18.50;99.90;;;;;;5005034;28;20454;-86
2022/05/21 12:56:12;;;;;;;0.00;0.00;;;19.50;99.90;;;;;;4990950;28;20858;-95
2022/05/21 12:58:38;;;;;;;0.00;0.00;;;19.30;99.90;;;;;;5021657;23;20495;-92
2022/05/21 13:01:05;;;;;;;0.00;0.00;;;18.60;99.90;;;;;;4998256;28;20477;-96
2022/05/21 13:03:33;;;;;;;0.00;0.00;;;17.80;99.90;;;;;;4995722;28;20504;-92
2022/05/21 13:06:04;;;;;;;0.00;0.00;;;17.80;99.90;;;;;;4988287;28;20488;-88
2022/05/21 13:08:31;;;;;;;0.00;0.00;;;18.20;99.90;;;;;;4986016;28;20811;-92
2022/05/21 13:11:06;;;;;;;0.00;0.00;;;18.20;99.90;;;;;;4986042;28;20480;-89
2022/05/21 13:13:35;;;;;;;0.00;0.00;;;18.50;99.90;;;;;;4989531;28;20498;-87
2022/05/21 13:16:04;;;;;;;0.00;0.00;;;17.80;99.90;;;;;;4989553;28;20471;-88
2022/05/21 13:19:05;;;;;;;0.07;0.07;;;18.10;99.90;;;;;;4991229;28;20471;-88
2022/05/21 13:21:56;;;;;;;0.10;0.10;;;18.20;99.90;;;;;;4989141;28;20521;-88
2022/05/21 13:24:54;;;;;;;0.10;0.10;;;17.60;99.90;;;;;;4989574;28;20549;-90
2022/05/21 13:27:21;;;;;;;0.10;0.10;;;17.50;99.90;;;;;;4982640;28;20499;-87
2022/05/21 13:29:49;;;;;;;0.10;0.10;;;16.90;99.90;;;;;;4989178;28;20543;-94
2022/05/21 13:32:16;;;;;;;0.10;0.10;;;16.80;99.90;;;;;;4986829;28;20459;-86
2022/05/21 13:34:42;;;;;;;0.10;0.10;;;17.20;99.90;;;;;;4985470;28;20452;-86
2022/05/21 13:37:07;;;;;;;0.10;0.10;;;16.80;99.90;;;;;;4988824;28;20448;-84
2022/05/21 13:39:35;;;;;;;0.10;0.10;;;16.20;99.90;;;;;;4990701;28;20197;-90